Time;durP1;ratioP1;P1;durP2;ratioP2;P2;SDS_P1;SDS_P2;PMS_P1;PMS_P2;Temp;Humidity;BMP_temperature;BMP_pressure;BME280_temperature;BME280_humidity;BME280_pressure;Samples;Min_cycle;Max_cycle;Signal;HPM_P1;HPM_P2
2023/03/03 00:01:04;;;;;;;;;;;21.00;31.50;;;;;;5137928;27;19919;-70
2023/03/03 00:03:30;;;;;;;;;;;20.90;31.70;;;;;;5156382;27;19927;-71
2023/03/03 00:05:55;;;;;;;;;;;20.70;31.80;;;;;;5138097;27;19926;-71
2023/03/03 00:08:21;;;;;;;;;;;20.60;31.90;;;;;;5138022;27;19923;-70
2023/03/03 00:10:47;;;;;;;;;;;20.50;32.10;;;;;;5156470;27;20323;-70
2023/03/03 00:13:15;;;;;;;;;;;20.30;32.20;;;;;;5137919;27;19923;-70
2023/03/03 00:15:41;;;;;;;;;;;20.20;32.40;;;;;;5156466;27;19919;-70
2023/03/03 00:18:26;;;;;;;;;;;20.10;32.50;;;;;;5138143;27;20321;-71
2023/03/03 00:20:53;;;;;;;;;;;19.90;32.70;;;;;;5156090;27;20362;-71
2023/03/03 00:23:21;;;;;;;;;;;19.80;32.80;;;;;;5137752;27;19923;-71
2023/03/03 00:25:49;;;;;;;;;;;19.70;33.00;;;;;;5137810;27;19919;-71
2023/03/03 00:30:55;;;;;;;;;;;19.40;33.30;;;;;;5128016;27;1907087;-70
2023/03/03 00:33:27;;;;;;;;;;;19.30;33.40;;;;;;5174472;27;19919;-70
2023/03/03 00:35:53;;;;;;;;;;;19.30;33.50;;;;;;5174644;27;19926;-70
2023/03/03 00:38:19;;;;;;;;;;;19.20;33.70;;;;;;5174939;27;19926;-71
2023/03/03 00:40:45;;;;;;;;;;;19.10;33.80;;;;;;5174188;27;20284;-71
2023/03/03 00:45:56;;;;;;;;;;;18.90;34.00;;;;;;5127336;27;1865232;-70
2023/03/03 00:51:24;;;;;;;;;;;18.80;34.30;;;;;;5110177;27;19918;-70
2023/03/03 00:53:52;;;;;;;;;;;18.70;34.30;;;;;;5092072;28;19971;-71
2023/03/03 00:56:18;;;;;;;;;;;18.60;34.40;;;;;;5108712;28;19924;-70
2023/03/03 00:58:46;;;;;;;;;;;18.60;34.60;;;;;;5110277;28;19920;-70
2023/03/03 01:01:12;;;;;;;;;;;18.50;34.60;;;;;;5092239;28;19920;-70
2023/03/03 01:03:37;;;;;;;;;;;18.50;34.70;;;;;;5091853;28;20001;-70
2023/03/03 01:06:03;;;;;;;;;;;18.40;34.80;;;;;;5091972;28;19927;-70
2023/03/03 01:08:28;;;;;;;;;;;18.40;34.90;;;;;;5091609;28;19942;-70
2023/03/03 01:10:55;;;;;;;;;;;18.30;35.00;;;;;;5091562;28;19931;-70
2023/03/03 01:13:22;;;;;;;;;;;18.20;35.00;;;;;;5091772;28;19920;-70
2023/03/03 01:15:48;;;;;;;;;;;18.20;35.10;;;;;;5109813;28;19920;-70
2023/03/03 01:18:13;;;;;;;;;;;18.10;35.20;;;;;;5091430;28;20303;-71
2023/03/03 01:20:39;;;;;;;;;;;18.10;35.30;;;;;;5091386;28;20002;-71
2023/03/03 01:23:05;;;;;;;;;;;18.00;35.30;;;;;;5109570;28;20015;-70
2023/03/03 01:25:31;;;;;;;;;;;17.90;35.40;;;;;;5091404;28;20337;-70
2023/03/03 01:27:57;;;;;;;;;;;17.90;35.50;;;;;;5091643;28;19951;-70
2023/03/03 01:30:24;;;;;;;;;;;17.80;35.60;;;;;;5108160;28;20186;-71
2023/03/03 01:32:49;;;;;;;;;;;17.80;35.70;;;;;;5109398;28;20372;-71
2023/03/03 01:35:15;;;;;;;;;;;17.70;35.70;;;;;;5109545;28;19926;-70
2023/03/03 01:37:40;;;;;;;;;;;17.60;35.80;;;;;;5091270;28;19920;-70
2023/03/03 01:40:11;;;;;;;;;;;17.60;35.90;;;;;;5109315;28;19923;-71
2023/03/03 01:42:36;;;;;;;;;;;17.50;36.00;;;;;;5109227;28;20407;-71
2023/03/03 01:45:12;;;;;;;;;;;17.40;36.10;;;;;;5091391;28;19927;-70
2023/03/03 01:47:38;;;;;;;;;;;17.40;36.30;;;;;;5109143;28;19973;-70
2023/03/03 01:50:10;;;;;;;;;;;17.30;36.30;;;;;;5108853;28;19931;-70
2023/03/03 01:52:38;;;;;;;;;;;17.20;36.40;;;;;;5090807;28;19920;-70
2023/03/03 01:55:08;;;;;;;;;;;17.20;36.40;;;;;;5090779;28;20003;-70
2023/03/03 01:57:37;;;;;;;;;;;17.20;36.50;;;;;;5090981;28;20371;-70
2023/03/03 02:00:04;;;;;;;;;;;17.20;36.50;;;;;;5091203;28;19926;-71
2023/03/03 02:02:30;;;;;;;;;;;17.10;36.50;;;;;;5095407;28;19943;-70
2023/03/03 02:04:56;;;;;;;;;;;17.10;36.60;;;;;;5077385;28;19924;-70
2023/03/03 02:07:23;;;;;;;;;;;17.10;36.60;;;;;;5077088;28;20332;-71
2023/03/03 02:09:58;;;;;;;;;;;17.10;36.60;;;;;;5076850;28;20009;-70
2023/03/03 02:12:28;;;;;;;;;;;17.00;36.60;;;;;;5077278;28;19920;-70
2023/03/03 02:14:54;;;;;;;;;;;17.00;36.70;;;;;;5076890;28;19920;-71
2023/03/03 02:17:23;;;;;;;;;;;16.90;36.70;;;;;;5076916;28;19920;-71
2023/03/03 02:22:33;;;;;;;;;;;16.90;36.90;;;;;;5127512;27;1868616;-71
2023/03/03 02:24:59;;;;;;;;;;;16.80;36.90;;;;;;5174263;27;20353;-70
2023/03/03 02:27:28;;;;;;;;;;;16.80;36.90;;;;;;5174434;27;19998;-70
2023/03/03 02:29:53;;;;;;;;;;;16.70;37.00;;;;;;5174277;27;19925;-70
2023/03/03 02:32:19;;;;;;;;;;;16.70;37.00;;;;;;5174198;27;20009;-70
2023/03/03 02:34:49;;;;;;;;;;;16.70;37.00;;;;;;5174346;27;20017;-70
2023/03/03 02:37:15;;;;;;;;;;;16.70;37.10;;;;;;5174131;27;19919;-71
2023/03/03 02:39:40;;;;;;;;;;;16.70;37.10;;;;;;5174417;27;19925;-71
2023/03/03 02:42:11;;;;;;;;;;;16.70;37.20;;;;;;5174007;27;20018;-71
2023/03/03 02:44:37;;;;;;;;;;;16.60;37.10;;;;;;5167778;27;19919;-71
2023/03/03 02:47:03;;;;;;;;;;;16.60;37.20;;;;;;5153351;27;19926;-71
2023/03/03 02:49:31;;;;;;;;;;;16.60;37.30;;;;;;5153023;27;20278;-70
2023/03/03 02:51:57;;;;;;;;;;;16.60;37.30;;;;;;5153432;27;19919;-70
2023/03/03 02:54:24;;;;;;;;;;;16.60;37.30;;;;;;5171591;27;20370;-71
2023/03/03 02:56:49;;;;;;;;;;;16.60;37.40;;;;;;5153440;27;20273;-70
2023/03/03 02:59:15;;;;;;;;;;;16.50;37.40;;;;;;5171727;27;20009;-70
2023/03/03 03:01:41;;;;;;;;;;;16.50;37.40;;;;;;5152794;27;19923;-71
2023/03/03 03:04:08;;;;;;;;;;;16.50;37.50;;;;;;5153120;27;20381;-70
2023/03/03 03:06:33;;;;;;;;;;;16.50;37.50;;;;;;5171421;27;19952;-70
2023/03/03 03:08:59;;;;;;;;;;;16.50;37.50;;;;;;5171599;27;19919;-70
2023/03/03 03:11:25;;;;;;;;;;;16.40;37.50;;;;;;5152930;27;20382;-71
2023/03/03 03:13:50;;;;;;;;;;;16.40;37.50;;;;;;5153221;27;20005;-70
2023/03/03 03:16:16;;;;;;;;;;;16.60;37.50;;;;;;5152691;27;19930;-71
2023/03/03 03:18:42;;;;;;;;;;;16.70;37.50;;;;;;5152900;27;19929;-71
2023/03/03 03:21:09;;;;;;;;;;;16.90;37.30;;;;;;5170776;27;20277;-71
2023/03/03 03:23:35;;;;;;;;;;;17.10;37.10;;;;;;5152774;27;19961;-70
2023/03/03 03:26:00;;;;;;;;;;;17.30;36.80;;;;;;5152684;27;19919;-70
2023/03/03 03:28:26;;;;;;;;;;;17.70;36.50;;;;;;5152363;27;20278;-70
2023/03/03 03:30:51;;;;;;;;;;;18.00;36.00;;;;;;5170846;27;19958;-70
2023/03/03 03:33:17;;;;;;;;;;;18.50;35.60;;;;;;5141538;27;19919;-71
2023/03/03 03:35:45;;;;;;;;;;;18.90;34.90;;;;;;5138667;27;19919;-70
2023/03/03 03:38:12;;;;;;;;;;;19.50;34.40;;;;;;5138728;27;20319;-70
2023/03/03 03:40:37;;;;;;;;;;;19.90;33.80;;;;;;5138281;27;20437;-71
2023/03/03 03:43:03;;;;;;;;;;;20.30;33.20;;;;;;5138252;27;19958;-71
2023/03/03 03:45:28;;;;;;;;;;;20.70;32.80;;;;;;5138289;27;19919;-70
2023/03/03 03:47:54;;;;;;;;;;;21.00;32.30;;;;;;5138465;27;19919;-70
2023/03/03 03:50:20;;;;;;;;;;;21.30;32.00;;;;;;5138204;27;20396;-71
2023/03/03 03:52:45;;;;;;;;;;;21.50;31.70;;;;;;5138104;27;19918;-70
2023/03/03 03:55:11;;;;;;;;;;;21.80;32.10;;;;;;5148285;27;19919;-70
2023/03/03 03:57:36;;;;;;;;;;;22.00;31.30;;;;;;5158670;27;19998;-71
2023/03/03 04:00:03;;;;;;;;;;;22.10;30.70;;;;;;5151420;27;20009;-71
2023/03/03 04:02:28;;;;;;;;;;;22.20;30.80;;;;;;5156123;27;19919;-71
2023/03/03 04:04:54;;;;;;;;;;;22.30;30.60;;;;;;5138158;27;20088;-70
2023/03/03 04:07:19;;;;;;;;;;;22.30;30.60;;;;;;5138086;27;19984;-70
2023/03/03 04:09:45;;;;;;;;;;;22.30;30.70;;;;;;5137763;27;19919;-71
2023/03/03 04:12:11;;;;;;;;;;;22.20;30.50;;;;;;5137919;27;19919;-70
2023/03/03 04:14:37;;;;;;;;;;;22.20;30.50;;;;;;5137740;27;20433;-71
2023/03/03 04:17:02;;;;;;;;;;;22.10;30.70;;;;;;5138005;27;20022;-71
2023/03/03 04:19:28;;;;;;;;;;;22.00;30.80;;;;;;5120665;27;19926;-71
2023/03/03 04:21:53;;;;;;;;;;;21.90;30.80;;;;;;5137217;27;19924;-71
2023/03/03 04:24:19;;;;;;;;;;;21.80;30.90;;;;;;5155975;27;19919;-70
2023/03/03 04:26:44;;;;;;;;;;;21.60;31.00;;;;;;5120337;27;19967;-70
2023/03/03 04:29:10;;;;;;;;;;;21.50;31.20;;;;;;5155912;27;19919;-70
2023/03/03 04:31:35;;;;;;;;;;;21.30;31.30;;;;;;5137313;27;19971;-71
2023/03/03 04:34:01;;;;;;;;;;;21.20;31.40;;;;;;5137183;27;20017;-71
2023/03/03 04:36:26;;;;;;;;;;;21.10;31.50;;;;;;5137518;27;19981;-71
2023/03/03 04:38:53;;;;;;;;;;;20.90;31.70;;;;;;5137522;27;20415;-71
2023/03/03 04:41:18;;;;;;;;;;;20.80;31.90;;;;;;5155679;27;19930;-70
2023/03/03 04:43:44;;;;;;;;;;;20.60;31.90;;;;;;5136556;27;19919;-71
2023/03/03 04:46:09;;;;;;;;;;;20.60;32.20;;;;;;5136709;27;20296;-71
2023/03/03 04:48:35;;;;;;;;;;;20.40;32.30;;;;;;5137238;27;19923;-71
2023/03/03 04:51:00;;;;;;;;;;;20.30;32.50;;;;;;5136876;27;20279;-71
2023/03/03 04:53:26;;;;;;;;;;;20.10;32.60;;;;;;5136518;27;19942;-71
2023/03/03 04:55:52;;;;;;;;;;;20.00;32.80;;;;;;5136645;27;20425;-71
2023/03/03 04:58:18;;;;;;;;;;;19.90;32.90;;;;;;5155426;27;20036;-70
2023/03/03 05:00:51;;;;;;;;;;;19.80;33.10;;;;;;5155163;27;19968;-71
2023/03/03 05:03:19;;;;;;;;;;;19.70;33.20;;;;;;5155313;27;20316;-71
2023/03/03 05:05:46;;;;;;;;;;;19.60;33.40;;;;;;5137060;27;20026;-71
2023/03/03 05:08:11;;;;;;;;;;;19.50;33.50;;;;;;5155140;27;20009;-70
2023/03/03 05:10:37;;;;;;;;;;;19.40;33.60;;;;;;5155017;27;20005;-70
2023/03/03 05:13:03;;;;;;;;;;;19.30;33.80;;;;;;5136478;27;19941;-70
2023/03/03 05:15:29;;;;;;;;;;;19.20;33.80;;;;;;5136769;27;19927;-70
2023/03/03 05:17:55;;;;;;;;;;;19.20;34.00;;;;;;5136724;27;19919;-71
2023/03/03 05:20:21;;;;;;;;;;;19.10;34.20;;;;;;5135974;27;20286;-71
2023/03/03 05:22:46;;;;;;;;;;;19.00;34.20;;;;;;5136703;27;19935;-71
2023/03/03 05:25:12;;;;;;;;;;;18.90;34.30;;;;;;5136413;27;20013;-70
2023/03/03 05:27:38;;;;;;;;;;;18.80;34.50;;;;;;5154956;27;19926;-70
2023/03/03 05:30:03;;;;;;;;;;;18.80;34.60;;;;;;5155324;27;20358;-70
2023/03/03 05:32:32;;;;;;;;;;;18.70;34.60;;;;;;5136478;27;19923;-71
2023/03/03 05:34:58;;;;;;;;;;;18.60;34.80;;;;;;5136420;27;20032;-70
2023/03/03 05:37:23;;;;;;;;;;;18.60;34.80;;;;;;5136000;27;19919;-71
2023/03/03 05:39:49;;;;;;;;;;;18.50;34.90;;;;;;5136245;27;19919;-71
2023/03/03 05:42:15;;;;;;;;;;;18.40;35.00;;;;;;5135991;27;19920;-71
2023/03/03 05:44:40;;;;;;;;;;;18.40;35.10;;;;;;5136486;27;19923;-71
2023/03/03 05:47:06;;;;;;;;;;;18.40;35.20;;;;;;5136227;27;20458;-70
2023/03/03 05:49:31;;;;;;;;;;;18.30;35.20;;;;;;5136234;27;20397;-71
2023/03/03 05:51:58;;;;;;;;;;;18.20;35.30;;;;;;5136102;27;19925;-71
2023/03/03 05:54:23;;;;;;;;;;;18.20;35.40;;;;;;5138889;27;20433;-71
2023/03/03 05:56:49;;;;;;;;;;;18.10;35.50;;;;;;5156084;27;19919;-70
2023/03/03 05:59:14;;;;;;;;;;;18.10;35.60;;;;;;5156449;27;19919;-71
2023/03/03 06:01:40;;;;;;;;;;;18.10;35.70;;;;;;5156348;27;19918;-71
2023/03/03 06:04:05;;;;;;;;;;;17.90;35.70;;;;;;5175025;27;19985;-71
2023/03/03 06:06:31;;;;;;;;;;;17.90;35.80;;;;;;5174958;27;19986;-71
2023/03/03 06:08:57;;;;;;;;;;;17.90;36.00;;;;;;5156196;27;20318;-71
2023/03/03 06:11:22;;;;;;;;;;;17.80;36.00;;;;;;5175027;27;19923;-71
2023/03/03 06:13:48;;;;;;;;;;;17.70;36.00;;;;;;5156624;27;19965;-70
2023/03/03 06:16:13;;;;;;;;;;;17.60;36.10;;;;;;5156433;27;20273;-71
2023/03/03 06:18:39;;;;;;;;;;;17.60;36.30;;;;;;5156517;27;20281;-71
2023/03/03 06:21:04;;;;;;;;;;;17.50;36.40;;;;;;5156035;27;20362;-71
2023/03/03 06:23:30;;;;;;;;;;;17.50;36.50;;;;;;5156373;27;19925;-71
2023/03/03 06:25:56;;;;;;;;;;;17.50;36.60;;;;;;5156099;27;19919;-71
2023/03/03 06:28:21;;;;;;;;;;;17.40;36.70;;;;;;5156069;27;19965;-71
2023/03/03 06:30:47;;;;;;;;;;;17.30;36.70;;;;;;5156095;27;20022;-71
2023/03/03 06:33:12;;;;;;;;;;;17.30;36.90;;;;;;5155963;27;19919;-71
2023/03/03 06:35:38;;;;;;;;;;;17.20;37.00;;;;;;5156391;27;19918;-71
2023/03/03 06:38:03;;;;;;;;;;;17.20;37.10;;;;;;5156256;27;20389;-71
2023/03/03 06:40:29;;;;;;;;;;;17.10;37.10;;;;;;5138933;27;20511;-71
2023/03/03 06:42:55;;;;;;;;;;;17.10;37.10;;;;;;5155897;27;20383;-71
2023/03/03 06:45:20;;;;;;;;;;;17.10;37.10;;;;;;5156014;27;19954;-71
2023/03/03 06:47:46;;;;;;;;;;;17.10;37.10;;;;;;5156175;27;19919;-70
2023/03/03 06:50:11;;;;;;;;;;;17.10;37.20;;;;;;5151202;27;20286;-71
2023/03/03 06:52:37;;;;;;;;;;;17.10;37.30;;;;;;5134900;27;20277;-71
2023/03/03 06:55:09;;;;;;;;;;;17.00;37.20;;;;;;5135315;27;19919;-71
2023/03/03 06:57:35;;;;;;;;;;;17.00;37.30;;;;;;5135366;27;19925;-70
2023/03/03 07:02:59;;;;;;;;;;;16.90;37.40;;;;;;5110167;27;19912;-70
2023/03/03 07:05:27;;;;;;;;;;;16.90;37.40;;;;;;5109234;28;19966;-70
2023/03/03 07:07:56;;;;;;;;;;;16.90;37.50;;;;;;5109102;28;19954;-71
2023/03/03 07:10:23;;;;;;;;;;;16.90;37.50;;;;;;5108878;28;19927;-70
2023/03/03 07:12:49;;;;;;;;;;;16.80;37.50;;;;;;5109147;28;19920;-70
2023/03/03 07:15:19;;;;;;;;;;;16.80;37.60;;;;;;5108722;28;19989;-71
2023/03/03 07:17:47;;;;;;;;;;;16.80;37.70;;;;;;5109009;28;19920;-71
2023/03/03 07:20:17;;;;;;;;;;;16.70;37.70;;;;;;5108525;28;19928;-71
2023/03/03 07:22:43;;;;;;;;;;;16.70;37.70;;;;;;5142863;27;19928;-71
2023/03/03 07:25:18;;;;;;;;;;;16.70;37.70;;;;;;5108579;28;19981;-70
2023/03/03 07:27:44;;;;;;;;;;;16.70;37.80;;;;;;5109018;28;19920;-71
2023/03/03 07:30:19;;;;;;;;;;;16.60;37.80;;;;;;5110088;28;20340;-71
2023/03/03 07:32:45;;;;;;;;;;;16.60;37.80;;;;;;5108663;28;19920;-71
2023/03/03 07:37:58;;;;;;;;;;;16.60;37.90;;;;;;5110203;27;19918;-70
2023/03/03 07:40:40;;;;;;;;;;;16.70;38.40;;;;;;5108936;28;19920;-71
2023/03/03 07:43:27;;;;;;;;;;;16.80;37.70;;;;;;5108370;28;19969;-75
2023/03/03 07:45:55;;;;;;;;;;;17.00;37.50;;;;;;5109784;28;20037;-70
2023/03/03 07:48:28;;;;;;;;;;;17.30;37.30;;;;;;5109067;28;20317;-70
2023/03/03 07:50:55;;;;;;;;;;;17.60;36.90;;;;;;5109019;28;19934;-71
2023/03/03 07:53:25;;;;;;;;;;;17.90;36.60;;;;;;5109063;28;20354;-71
2023/03/03 07:55:50;;;;;;;;;;;18.30;36.90;;;;;;5108615;28;19927;-71
2023/03/03 07:58:21;;;;;;;;;;;18.80;35.70;;;;;;5108987;28;20288;-71
2023/03/03 08:03:30;;;;;;;;;;;19.70;34.40;;;;;;5110348;27;19919;-71
2023/03/03 08:05:55;;;;;;;;;;;20.30;33.90;;;;;;5109137;28;19920;-71
2023/03/03 08:08:28;;;;;;;;;;;20.70;33.40;;;;;;5109158;28;20371;-70
2023/03/03 08:10:55;;;;;;;;;;;21.10;32.80;;;;;;5108772;28;19920;-71
2023/03/03 08:16:17;;;;;;;;;;;21.80;31.80;;;;;;5089988;28;19919;-71
2023/03/03 08:18:46;;;;;;;;;;;22.10;31.40;;;;;;5088636;28;19921;-71
2023/03/03 08:21:14;;;;;;;;;;;22.50;31.10;;;;;;5088681;28;19924;-71
2023/03/03 08:23:39;;;;;;;;;;;22.70;31.00;;;;;;5088893;28;19973;-71
2023/03/03 08:26:05;;;;;;;;;;;22.80;30.60;;;;;;5088393;28;19924;-71
2023/03/03 08:28:31;;;;;;;;;;;22.90;30.40;;;;;;5088471;28;19920;-71
2023/03/03 08:30:57;;;;;;;;;;;22.90;30.30;;;;;;5088275;28;19966;-71
2023/03/03 08:33:28;;;;;;;;;;;22.90;30.30;;;;;;5088330;28;19970;-71
2023/03/03 08:35:54;;;;;;;;;;;22.90;30.30;;;;;;5105089;28;19924;-71
2023/03/03 08:38:20;;;;;;;;;;;22.70;30.30;;;;;;5088582;28;19920;-71
2023/03/03 08:40:46;;;;;;;;;;;22.70;30.50;;;;;;5105170;28;19920;-71
2023/03/03 08:43:15;;;;;;;;;;;22.50;30.40;;;;;;5089524;28;19965;-70
2023/03/03 08:45:43;;;;;;;;;;;22.40;30.50;;;;;;5088529;28;19920;-70
2023/03/03 08:48:09;;;;;;;;;;;22.30;30.80;;;;;;5088206;28;19920;-71
2023/03/03 08:50:34;;;;;;;;;;;22.10;30.90;;;;;;5088106;28;19942;-71
2023/03/03 08:53:00;;;;;;;;;;;22.00;30.90;;;;;;5087937;28;20074;-71
2023/03/03 08:55:25;;;;;;;;;;;21.90;31.30;;;;;;5087775;28;19924;-71
2023/03/03 08:57:51;;;;;;;;;;;21.70;31.40;;;;;;5088086;28;19928;-71
2023/03/03 09:00:17;;;;;;;;;;;21.60;31.50;;;;;;5088315;28;19924;-70
2023/03/03 09:02:43;;;;;;;;;;;21.40;31.60;;;;;;5087740;28;19932;-73
2023/03/03 09:05:09;;;;;;;;;;;21.20;31.70;;;;;;5088009;28;19920;-71
2023/03/03 09:07:35;;;;;;;;;;;21.10;32.00;;;;;;5089092;28;19920;-71
2023/03/03 09:10:01;;;;;;;;;;;20.90;32.10;;;;;;5087970;28;20279;-70
2023/03/03 09:12:28;;;;;;;;;;;20.80;32.40;;;;;;5087584;28;20371;-71
2023/03/03 09:14:58;;;;;;;;;;;20.60;32.50;;;;;;5087390;28;19924;-70
2023/03/03 09:17:29;;;;;;;;;;;20.50;32.70;;;;;;5104816;28;20015;-71
2023/03/03 09:19:58;;;;;;;;;;;20.30;32.90;;;;;;5087375;28;19924;-71
2023/03/03 09:22:27;;;;;;;;;;;20.10;33.00;;;;;;5088853;28;20363;-71
2023/03/03 09:24:56;;;;;;;;;;;20.10;33.20;;;;;;5087339;28;19928;-70
2023/03/03 09:27:26;;;;;;;;;;;19.90;33.30;;;;;;5073931;28;20443;-70
2023/03/03 09:29:51;;;;;;;;;;;19.80;33.50;;;;;;5073831;28;20007;-70
2023/03/03 09:32:38;;;;;;;;;;;19.80;33.70;;;;;;5083053;28;20015;-71
2023/03/03 09:35:26;;;;;;;;;;;19.60;33.80;;;;;;5068511;28;19964;-71
2023/03/03 09:37:52;;;;;;;;;;;19.50;34.70;;;;;;5059994;28;19927;-70
2023/03/03 09:40:32;;;;;;;;;;;19.40;34.10;;;;;;5065037;28;19921;-71
2023/03/03 09:43:03;;;;;;;;;;;19.30;34.20;;;;;;5051987;28;20007;-71
2023/03/03 09:48:18;;;;;;;;;;;19.10;34.40;;;;;;5128355;27;1864935;-70
2023/03/03 09:56:23;;;;;;;;;;;18.90;34.70;;;;;;5088175;27;19922;-71
2023/03/03 09:59:02;;;;;;;;;;;18.80;34.80;;;;;;5087398;28;19924;-70
2023/03/03 10:07:02;;;;;;;;;;;18.60;35.20;;;;;;5110224;27;20611;-70
2023/03/03 10:09:41;;;;;;;;;;;18.60;35.30;;;;;;5108875;28;19924;-70
2023/03/03 10:12:23;;;;;;;;;;;18.40;35.40;;;;;;5108872;28;19924;-70
2023/03/03 10:15:08;;;;;;;;;;;18.40;35.60;;;;;;5109155;28;20394;-70
2023/03/03 10:17:54;;;;;;;;;;;18.30;35.70;;;;;;5108882;28;19928;-70
2023/03/03 10:23:22;;;;;;;;;;;18.10;35.90;;;;;;5089808;28;20398;-70
2023/03/03 10:26:07;;;;;;;;;;;18.10;36.00;;;;;;5089512;28;19924;-70
2023/03/03 10:28:52;;;;;;;;;;;18.00;36.20;;;;;;5088202;28;19924;-70
2023/03/03 10:31:38;;;;;;;;;;;17.90;36.30;;;;;;5088463;28;20287;-71
2023/03/03 10:34:23;;;;;;;;;;;17.90;36.40;;;;;;5088401;28;19966;-70
2023/03/03 10:39:38;;;;;;;;;;;17.70;36.60;;;;;;5110329;27;19913;-70
2023/03/03 10:42:11;;;;;;;;;;;17.70;36.70;;;;;;5108597;28;19920;-70
2023/03/03 10:47:41;;;;;;;;;;;17.50;37.00;;;;;;5109590;27;19918;-70
2023/03/03 10:53:13;;;;;;;;;;;17.40;37.20;;;;;;5124592;27;1918640;-70
2023/03/03 11:06:40;;;;;;;;;;;17.20;37.80;;;;;;5126592;27;1869041;-70
2023/03/03 11:09:14;;;;;;;;;;;17.10;37.90;;;;;;5192544;27;19971;-70
2023/03/03 11:14:25;;;;;;;;;;;17.10;38.00;;;;;;5109851;27;19912;-70
2023/03/03 11:20:06;;;;;;;;;;;17.00;38.10;;;;;;5089208;28;19916;-71
2023/03/03 11:30:56;;;;;;;;;;;17.00;38.40;;;;;;5088971;28;19934;-70
2023/03/03 11:33:29;;;;;;;;;;;16.90;38.30;;;;;;5087529;28;19970;-71
2023/03/03 11:36:08;;;;;;;;;;;16.90;38.40;;;;;;5087574;28;19989;-70
2023/03/03 11:46:57;;;;;;;;;;;16.80;38.50;;;;;;5108956;27;19937;-70
2023/03/03 11:49:26;;;;;;;;;;;16.70;38.50;;;;;;5109299;28;19962;-70
2023/03/03 11:54:51;;;;;;;;;;;16.80;38.70;;;;;;5109670;27;20408;-71
2023/03/03 12:00:03;;;;;;;;;;;16.80;38.70;;;;;;5130345;27;19918;-70
2023/03/03 12:08:06;;;;;;;;;;;16.70;38.80;;;;;;5109394;27;19938;-70
2023/03/03 12:13:33;;;;;;;;;;;16.70;38.90;;;;;;5089116;28;19938;-70
2023/03/03 12:16:06;;;;;;;;;;;16.70;38.90;;;;;;5087923;28;19924;-70
2023/03/03 12:21:48;;;;;;;;;;;16.60;38.90;;;;;;5109340;27;19912;-70
2023/03/03 12:24:36;;;;;;;;;;;16.60;38.90;;;;;;5108046;28;20529;-70
2023/03/03 12:27:13;;;;;;;;;;;16.60;39.00;;;;;;5107924;28;19920;-70
2023/03/03 12:29:48;;;;;;;;;;;16.60;39.00;;;;;;5108363;28;19920;-70
2023/03/03 12:32:27;;;;;;;;;;;16.60;39.10;;;;;;5107986;28;20006;-70
2023/03/03 12:34:58;;;;;;;;;;;16.60;39.10;;;;;;5108505;28;19920;-70
2023/03/03 12:40:08;;;;;;;;;;;16.50;39.10;;;;;;5135255;27;1871949;-70
2023/03/03 12:48:04;;;;;;;;;;;16.50;39.10;;;;;;5110350;27;19962;-70
2023/03/03 12:55:53;;;;;;;;;;;16.40;39.20;;;;;;5110231;27;19918;-70
2023/03/03 13:01:27;;;;;;;;;;;16.40;39.30;;;;;;5110435;27;19941;-70
2023/03/03 13:10:02;;;;;;;;;;;16.40;39.30;;;;;;5127619;27;1864349;-70
2023/03/03 13:12:31;;;;;;;;;;;16.30;39.30;;;;;;5174362;27;19918;-70
2023/03/03 13:15:02;;;;;;;;;;;16.30;39.30;;;;;;5174850;27;19922;-70
2023/03/03 13:17:32;;;;;;;;;;;16.30;39.30;;;;;;5174601;27;19928;-70
2023/03/03 13:19:59;;;;;;;;;;;16.30;39.40;;;;;;5174759;27;19925;-71
2023/03/03 13:25:20;;;;;;;;;;;16.20;39.40;;;;;;5110638;27;19918;-70
2023/03/03 13:27:49;;;;;;;;;;;16.30;39.40;;;;;;5110561;28;19919;-70
2023/03/03 13:33:02;;;;;;;;;;;16.30;39.50;;;;;;5090239;28;19919;-70
2023/03/03 13:38:11;;;;;;;;;;;16.20;39.40;;;;;;5090498;28;19940;-70
2023/03/03 13:43:21;;;;;;;;;;;16.20;39.40;;;;;;5089814;28;19943;-71
2023/03/03 13:54:32;;;;;;;;;;;16.10;39.40;;;;;;5089136;28;20334;-71
2023/03/03 13:59:54;;;;;;;;;;;16.10;39.40;;;;;;5090058;28;19922;-70
2023/03/03 14:02:39;;;;;;;;;;;16.10;39.50;;;;;;5088541;28;20371;-71
2023/03/03 14:05:11;;;;;;;;;;;16.10;39.50;;;;;;5088692;28;20180;-70
2023/03/03 14:07:41;;;;;;;;;;;16.10;39.60;;;;;;5088389;28;19930;-70
2023/03/03 14:10:27;;;;;;;;;;;16.10;39.50;;;;;;5088843;28;19924;-70
2023/03/03 14:13:12;;;;;;;;;;;16.10;39.60;;;;;;5088127;28;19924;-70
2023/03/03 14:21:06;;;;;;;;;;;16.10;39.70;;;;;;5129462;27;1864941;-71
2023/03/03 14:26:11;;;;;;;;;;;16.00;39.70;;;;;;5129521;27;1864732;-70
2023/03/03 14:28:38;;;;;;;;;;;15.90;39.70;;;;;;5174338;27;19970;-70
2023/03/03 14:31:20;;;;;;;;;;;16.00;39.80;;;;;;5174504;27;20377;-70
2023/03/03 14:34:06;;;;;;;;;;;16.00;39.80;;;;;;5174671;27;19926;-70
2023/03/03 14:36:34;;;;;;;;;;;15.90;39.70;;;;;;5174283;27;20013;-70
2023/03/03 14:39:00;;;;;;;;;;;15.90;39.70;;;;;;5174184;27;19919;-70
2023/03/03 14:41:41;;;;;;;;;;;15.90;39.80;;;;;;5174251;27;19925;-71
2023/03/03 14:44:26;;;;;;;;;;;15.90;40.50;;;;;;5174285;27;20300;-70
2023/03/03 14:47:12;;;;;;;;;;;15.60;39.60;;;;;;5192333;27;20046;-70
2023/03/03 14:49:38;;;;;;;;;;;15.90;39.80;;;;;;5153307;27;20325;-70
2023/03/03 14:54:47;;;;;;;;;;;15.80;39.80;;;;;;5110218;27;19913;-70
2023/03/03 15:00:05;;;;;;;;;;;15.80;39.90;;;;;;5110899;27;19918;-70
2023/03/03 15:05:17;;;;;;;;;;;15.80;40.00;;;;;;5108102;27;1882275;-70
2023/03/03 15:07:43;;;;;;;;;;;15.80;40.00;;;;;;5174436;27;19918;-70
2023/03/03 15:10:11;;;;;;;;;;;15.80;40.00;;;;;;5175115;27;20255;-70
2023/03/03 15:12:41;;;;;;;;;;;15.80;40.00;;;;;;5174269;27;19918;-70
2023/03/03 15:23:30;;;;;;;;;;;15.70;40.10;;;;;;5089951;27;19922;-70
2023/03/03 15:31:39;;;;;;;;;;;15.70;40.20;;;;;;5126918;27;1864086;-70
2023/03/03 15:39:46;;;;;;;;;;;15.60;40.20;;;;;;5089913;28;19919;-70
2023/03/03 15:42:14;;;;;;;;;;;15.60;40.20;;;;;;5089888;28;19934;-71
2023/03/03 15:47:38;;;;;;;;;;;15.60;40.20;;;;;;5127314;27;1870471;-70
2023/03/03 15:52:55;;;;;;;;;;;15.60;40.20;;;;;;5110372;27;19916;-70
2023/03/03 15:58:23;;;;;;;;;;;15.60;40.20;;;;;;5122305;27;2015645;-70
2023/03/03 16:03:30;;;;;;;;;;;15.80;40.20;;;;;;5110367;27;20308;-70
2023/03/03 16:06:16;;;;;;;;;;;16.10;40.00;;;;;;5108973;28;19967;-70
2023/03/03 16:11:45;;;;;;;;;;;16.50;39.40;;;;;;5130717;27;20093;-70
2023/03/03 16:14:26;;;;;;;;;;;16.80;39.00;;;;;;5129454;28;20439;-70
2023/03/03 16:19:38;;;;;;;;;;;17.80;37.90;;;;;;5127464;27;1866910;-71
2023/03/03 16:22:23;;;;;;;;;;;18.40;37.10;;;;;;5174302;27;20396;-70
2023/03/03 16:27:49;;;;;;;;;;;19.50;35.60;;;;;;5110228;27;19918;-70
2023/03/03 16:35:41;;;;;;;;;;;21.00;33.70;;;;;;5131356;27;1865583;-70
2023/03/03 16:38:25;;;;;;;;;;;21.40;33.30;;;;;;5174447;27;19948;-70
2023/03/03 16:40:54;;;;;;;;;;;21.60;32.60;;;;;;5174347;27;19926;-70
2023/03/03 16:46:23;;;;;;;;;;;22.00;32.40;;;;;;5110334;27;19919;-70
2023/03/03 16:48:54;;;;;;;;;;;22.00;33.00;;;;;;5108847;28;19920;-70
2023/03/03 16:51:31;;;;;;;;;;;22.00;32.10;;;;;;5143572;27;19994;-70
2023/03/03 16:54:16;;;;;;;;;;;21.90;31.90;;;;;;5108912;28;19973;-70
2023/03/03 16:56:43;;;;;;;;;;;21.80;31.90;;;;;;5088659;28;20421;-70
2023/03/03 16:59:29;;;;;;;;;;;21.80;31.90;;;;;;5088808;28;19920;-70
2023/03/03 17:04:48;;;;;;;;;;;21.50;32.20;;;;;;5128303;27;1901265;-70
2023/03/03 17:07:33;;;;;;;;;;;21.40;32.20;;;;;;5174799;27;19958;-70
2023/03/03 17:15:23;;;;;;;;;;;20.90;32.60;;;;;;5090035;28;19913;-70
2023/03/03 17:17:54;;;;;;;;;;;20.80;32.80;;;;;;5088749;28;20018;-70
2023/03/03 17:25:47;;;;;;;;;;;20.30;33.30;;;;;;5090092;28;20506;-70
2023/03/03 17:31:00;;;;;;;;;;;20.00;33.60;;;;;;5089975;28;20379;-71
2023/03/03 17:33:45;;;;;;;;;;;19.80;33.80;;;;;;5088511;28;19920;-71
2023/03/03 17:41:40;;;;;;;;;;;19.50;34.40;;;;;;5110415;27;19919;-70
2023/03/03 17:44:18;;;;;;;;;;;19.30;34.40;;;;;;5108957;28;19934;-70
2023/03/03 17:49:35;;;;;;;;;;;19.10;34.70;;;;;;5090137;28;19941;-70
2023/03/03 17:52:22;;;;;;;;;;;19.10;34.90;;;;;;5088998;28;19965;-71
2023/03/03 17:55:08;;;;;;;;;;;19.00;35.00;;;;;;5088646;28;20272;-70
2023/03/03 18:03:13;;;;;;;;;;;18.70;35.30;;;;;;5110412;27;19940;-70
2023/03/03 18:05:43;;;;;;;;;;;18.60;35.40;;;;;;5109271;28;19927;-70
2023/03/03 18:08:28;;;;;;;;;;;18.60;35.60;;;;;;5108892;28;20389;-70
2023/03/03 18:19:36;;;;;;;;;;;18.20;36.00;;;;;;5130735;27;19911;-73
2023/03/03 18:22:11;;;;;;;;;;;18.10;36.10;;;;;;5129294;28;19962;-71
2023/03/03 18:24:38;;;;;;;;;;;18.10;36.30;;;;;;5129953;28;19923;-71
2023/03/03 18:27:23;;;;;;;;;;;18.00;36.50;;;;;;5129605;28;19934;-70
2023/03/03 18:33:04;;;;;;;;;;;17.80;36.60;;;;;;5110354;27;19938;-70
2023/03/03 18:43:52;;;;;;;;;;;17.50;37.10;;;;;;5089861;28;20299;-70
2023/03/03 18:48:59;;;;;;;;;;;17.40;37.30;;;;;;5124499;27;1948338;-71